sensor_id;sensor_type;location;lat;lon;timestamp;P1;durP1;ratioP1;P2;durP2;ratioP2
23720;SDS011;42950;52.134;5.578;2023-04-24T00:00:03;2.38;;;0.95;;
23720;SDS011;42950;52.134;5.578;2023-04-24T00:02:36;1.35;;;1.10;;
23720;SDS011;42950;52.134;5.578;2023-04-24T00:05:05;2.50;;;1.25;;
23720;SDS011;42950;52.134;5.578;2023-04-24T00:07:32;2.38;;;1.23;;
23720;SDS011;42950;52.134;5.578;2023-04-24T00:09:58;2.50;;;1.60;;
23720;SDS011;42950;52.134;5.578;2023-04-24T00:12:24;2.53;;;2.10;;
23720;SDS011;42950;52.134;5.578;2023-04-24T00:14:50;3.78;;;2.60;;
23720;SDS011;42950;52.134;5.578;2023-04-24T00:17:16;3.35;;;3.05;;
23720;SDS011;42950;52.134;5.578;2023-04-24T00:19:45;3.60;;;3.33;;
23720;SDS011;42950;52.134;5.578;2023-04-24T00:22:11;4.32;;;3.92;;
23720;SDS011;42950;52.134;5.578;2023-04-24T00:24:39;6.32;;;3.85;;
23720;SDS011;42950;52.134;5.578;2023-04-24T00:27:05;5.03;;;4.20;;
23720;SDS011;42950;52.134;5.578;2023-04-24T00:29:31;5.28;;;4.80;;
23720;SDS011;42950;52.134;5.578;2023-04-24T00:31:57;6.72;;;5.10;;
23720;SDS011;42950;52.134;5.578;2023-04-24T00:34:24;5.28;;;4.88;;
23720;SDS011;42950;52.134;5.578;2023-04-24T00:36:50;5.03;;;4.63;;
23720;SDS011;42950;52.134;5.578;2023-04-24T00:39:20;5.07;;;4.63;;
23720;SDS011;42950;52.134;5.578;2023-04-24T00:41:48;4.90;;;4.50;;
23720;SDS011;42950;52.134;5.578;2023-04-24T00:44:14;4.63;;;4.22;;
23720;SDS011;42950;52.134;5.578;2023-04-24T00:46:40;4.93;;;4.32;;
23720;SDS011;42950;52.134;5.578;2023-04-24T00:49:07;4.10;;;3.80;;
23720;SDS011;42950;52.134;5.578;2023-04-24T00:51:33;5.00;;;4.53;;
23720;SDS011;42950;52.134;5.578;2023-04-24T00:54:00;5.28;;;4.25;;
23720;SDS011;42950;52.134;5.578;2023-04-24T00:56:26;4.40;;;4.00;;
23720;SDS011;42950;52.134;5.578;2023-04-24T00:58:53;4.03;;;3.72;;
23720;SDS011;42950;52.134;5.578;2023-04-24T01:01:19;4.22;;;3.92;;
23720;SDS011;42950;52.134;5.578;2023-04-24T01:03:47;4.40;;;4.00;;
23720;SDS011;42950;52.134;5.578;2023-04-24T01:06:16;5.07;;;4.57;;
23720;SDS011;42950;52.134;5.578;2023-04-24T01:08:45;5.20;;;4.70;;
23720;SDS011;42950;52.134;5.578;2023-04-24T01:11:13;5.57;;;5.07;;
23720;SDS011;42950;52.134;5.578;2023-04-24T01:13:39;6.80;;;5.10;;
23720;SDS011;42950;52.134;5.578;2023-04-24T01:16:05;5.95;;;5.35;;
23720;SDS011;42950;52.134;5.578;2023-04-24T01:18:31;7.32;;;5.70;;
23720;SDS011;42950;52.134;5.578;2023-04-24T01:20:58;5.93;;;5.32;;
23720;SDS011;42950;52.134;5.578;2023-04-24T01:23:24;6.15;;;5.53;;
23720;SDS011;42950;52.134;5.578;2023-04-24T01:25:51;5.78;;;5.28;;
23720;SDS011;42950;52.134;5.578;2023-04-24T01:28:17;6.35;;;5.75;;
23720;SDS011;42950;52.134;5.578;2023-04-24T01:30:44;6.60;;;6.00;;
23720;SDS011;42950;52.134;5.578;2023-04-24T01:33:11;6.40;;;5.80;;
23720;SDS011;42950;52.134;5.578;2023-04-24T01:35:38;7.38;;;6.10;;
23720;SDS011;42950;52.134;5.578;2023-04-24T01:38:04;7.32;;;6.70;;
23720;SDS011;42950;52.134;5.578;2023-04-24T01:40:31;7.72;;;6.95;;
23720;SDS011;42950;52.134;5.578;2023-04-24T01:42:58;7.30;;;6.70;;
23720;SDS011;42950;52.134;5.578;2023-04-24T01:45:24;9.23;;;7.28;;
23720;SDS011;42950;52.134;5.578;2023-04-24T01:47:50;8.18;;;7.38;;
23720;SDS011;42950;52.134;5.578;2023-04-24T01:50:16;8.23;;;7.45;;
23720;SDS011;42950;52.134;5.578;2023-04-24T01:52:42;8.68;;;7.88;;
23720;SDS011;42950;52.134;5.578;2023-04-24T01:55:14;8.18;;;7.40;;
23720;SDS011;42950;52.134;5.578;2023-04-24T01:57:39;8.52;;;7.80;;
23720;SDS011;42950;52.134;5.578;2023-04-24T02:00:06;9.73;;;8.85;;
23720;SDS011;42950;52.134;5.578;2023-04-24T02:02:32;9.23;;;8.43;;
23720;SDS011;42950;52.134;5.578;2023-04-24T02:04:58;9.68;;;8.77;;
23720;SDS011;42950;52.134;5.578;2023-04-24T02:07:24;9.23;;;8.18;;
23720;SDS011;42950;52.134;5.578;2023-04-24T02:09:50;9.20;;;7.75;;
23720;SDS011;42950;52.134;5.578;2023-04-24T02:12:15;7.45;;;6.72;;
23720;SDS011;42950;52.134;5.578;2023-04-24T02:14:42;7.40;;;6.70;;
23720;SDS011;42950;52.134;5.578;2023-04-24T02:17:08;6.13;;;5.63;;
23720;SDS011;42950;52.134;5.578;2023-04-24T02:19:34;6.13;;;4.90;;
23720;SDS011;42950;52.134;5.578;2023-04-24T02:22:00;4.72;;;4.40;;
23720;SDS011;42950;52.134;5.578;2023-04-24T02:24:26;3.80;;;3.50;;
23720;SDS011;42950;52.134;5.578;2023-04-24T02:26:51;3.53;;;3.25;;
23720;SDS011;42950;52.134;5.578;2023-04-24T02:29:17;4.28;;;3.97;;
23720;SDS011;42950;52.134;5.578;2023-04-24T02:31:44;5.32;;;4.93;;
23720;SDS011;42950;52.134;5.578;2023-04-24T02:34:09;5.60;;;5.20;;
23720;SDS011;42950;52.134;5.578;2023-04-24T02:36:35;5.90;;;5.40;;
23720;SDS011;42950;52.134;5.578;2023-04-24T02:39:01;6.80;;;6.20;;
23720;SDS011;42950;52.134;5.578;2023-04-24T02:41:26;7.13;;;6.53;;
23720;SDS011;42950;52.134;5.578;2023-04-24T02:43:57;6.72;;;6.13;;
23720;SDS011;42950;52.134;5.578;2023-04-24T02:46:23;7.70;;;6.03;;
23720;SDS011;42950;52.134;5.578;2023-04-24T02:48:49;7.10;;;6.47;;
23720;SDS011;42950;52.134;5.578;2023-04-24T02:51:15;6.90;;;6.30;;
23720;SDS011;42950;52.134;5.578;2023-04-24T02:53:41;7.30;;;6.60;;
23720;SDS011;42950;52.134;5.578;2023-04-24T02:56:09;7.30;;;6.70;;
23720;SDS011;42950;52.134;5.578;2023-04-24T02:58:37;7.85;;;7.20;;
23720;SDS011;42950;52.134;5.578;2023-04-24T03:01:03;7.68;;;7.05;;
23720;SDS011;42950;52.134;5.578;2023-04-24T03:03:29;8.93;;;6.85;;
23720;SDS011;42950;52.134;5.578;2023-04-24T03:05:55;6.78;;;6.28;;
23720;SDS011;42950;52.134;5.578;2023-04-24T03:08:22;7.18;;;6.57;;
23720;SDS011;42950;52.134;5.578;2023-04-24T03:10:48;6.68;;;6.07;;
23720;SDS011;42950;52.134;5.578;2023-04-24T03:13:15;6.63;;;6.13;;
23720;SDS011;42950;52.134;5.578;2023-04-24T03:15:41;6.70;;;6.10;;
23720;SDS011;42950;52.134;5.578;2023-04-24T03:18:07;6.03;;;5.43;;
23720;SDS011;42950;52.134;5.578;2023-04-24T03:20:34;5.93;;;5.40;;
23720;SDS011;42950;52.134;5.578;2023-04-24T03:22:59;6.05;;;5.45;;
23720;SDS011;42950;52.134;5.578;2023-04-24T03:25:26;6.80;;;5.45;;
23720;SDS011;42950;52.134;5.578;2023-04-24T03:27:52;5.95;;;5.43;;
23720;SDS011;42950;52.134;5.578;2023-04-24T03:30:19;6.57;;;5.97;;
23720;SDS011;42950;52.134;5.578;2023-04-24T03:32:45;6.55;;;6.05;;
23720;SDS011;42950;52.134;5.578;2023-04-24T03:35:11;9.02;;;6.05;;
23720;SDS011;42950;52.134;5.578;2023-04-24T03:37:37;7.60;;;6.80;;
23720;SDS011;42950;52.134;5.578;2023-04-24T03:40:02;8.13;;;6.38;;
23720;SDS011;42950;52.134;5.578;2023-04-24T03:42:29;7.05;;;6.35;;
23720;SDS011;42950;52.134;5.578;2023-04-24T03:44:55;8.20;;;6.72;;
23720;SDS011;42950;52.134;5.578;2023-04-24T03:47:20;7.75;;;6.70;;
23720;SDS011;42950;52.134;5.578;2023-04-24T03:49:48;7.13;;;6.45;;
23720;SDS011;42950;52.134;5.578;2023-04-24T03:52:14;7.47;;;6.85;;
23720;SDS011;42950;52.134;5.578;2023-04-24T03:54:40;7.45;;;6.50;;
23720;SDS011;42950;52.134;5.578;2023-04-24T03:57:05;7.63;;;6.93;;
23720;SDS011;42950;52.134;5.578;2023-04-24T03:59:31;6.95;;;6.30;;
23720;SDS011;42950;52.134;5.578;2023-04-24T04:01:57;6.63;;;6.03;;
23720;SDS011;42950;52.134;5.578;2023-04-24T04:04:23;6.97;;;6.35;;
23720;SDS011;42950;52.134;5.578;2023-04-24T04:06:49;7.05;;;6.45;;
23720;SDS011;42950;52.134;5.578;2023-04-24T04:09:14;5.80;;;5.40;;
23720;SDS011;42950;52.134;5.578;2023-04-24T04:11:40;6.03;;;5.53;;
23720;SDS011;42950;52.134;5.578;2023-04-24T04:14:13;5.30;;;4.90;;
23720;SDS011;42950;52.134;5.578;2023-04-24T04:16:39;5.55;;;5.10;;
23720;SDS011;42950;52.134;5.578;2023-04-24T04:19:05;4.78;;;3.90;;
23720;SDS011;42950;52.134;5.578;2023-04-24T04:21:31;3.90;;;3.60;;
23720;SDS011;42950;52.134;5.578;2023-04-24T04:23:57;3.80;;;3.50;;
23720;SDS011;42950;52.134;5.578;2023-04-24T04:26:23;3.83;;;3.15;;
23720;SDS011;42950;52.134;5.578;2023-04-24T04:28:51;3.83;;;3.38;;
23720;SDS011;42950;52.134;5.578;2023-04-24T04:31:17;3.88;;;3.53;;
23720;SDS011;42950;52.134;5.578;2023-04-24T04:33:42;5.93;;;3.40;;
23720;SDS011;42950;52.134;5.578;2023-04-24T04:36:08;5.07;;;3.78;;
23720;SDS011;42950;52.134;5.578;2023-04-24T04:38:34;3.88;;;3.58;;
23720;SDS011;42950;52.134;5.578;2023-04-24T04:41:00;4.38;;;4.03;;
23720;SDS011;42950;52.134;5.578;2023-04-24T04:43:25;4.45;;;4.05;;
23720;SDS011;42950;52.134;5.578;2023-04-24T04:45:54;4.90;;;4.50;;
23720;SDS011;42950;52.134;5.578;2023-04-24T04:48:21;4.60;;;4.20;;
23720;SDS011;42950;52.134;5.578;2023-04-24T04:50:48;4.35;;;4.05;;
23720;SDS011;42950;52.134;5.578;2023-04-24T04:53:14;6.82;;;3.95;;
23720;SDS011;42950;52.134;5.578;2023-04-24T04:55:40;4.25;;;3.85;;
23720;SDS011;42950;52.134;5.578;2023-04-24T04:58:06;3.92;;;3.53;;
23720;SDS011;42950;52.134;5.578;2023-04-24T05:00:32;3.78;;;3.20;;
23720;SDS011;42950;52.134;5.578;2023-04-24T05:03:01;3.50;;;3.20;;
23720;SDS011;42950;52.134;5.578;2023-04-24T05:05:28;6.78;;;3.15;;
23720;SDS011;42950;52.134;5.578;2023-04-24T05:07:54;3.78;;;3.17;;
23720;SDS011;42950;52.134;5.578;2023-04-24T05:10:21;3.75;;;2.80;;
23720;SDS011;42950;52.134;5.578;2023-04-24T05:12:47;3.20;;;2.90;;
23720;SDS011;42950;52.134;5.578;2023-04-24T05:15:14;2.97;;;2.78;;
23720;SDS011;42950;52.134;5.578;2023-04-24T05:17:40;5.43;;;3.50;;
23720;SDS011;42950;52.134;5.578;2023-04-24T05:20:06;3.83;;;3.40;;
23720;SDS011;42950;52.134;5.578;2023-04-24T05:22:32;3.53;;;3.22;;
23720;SDS011;42950;52.134;5.578;2023-04-24T05:24:58;5.22;;;3.13;;
23720;SDS011;42950;52.134;5.578;2023-04-24T05:27:24;4.13;;;3.30;;
23720;SDS011;42950;52.134;5.578;2023-04-24T05:29:50;4.28;;;3.50;;
23720;SDS011;42950;52.134;5.578;2023-04-24T05:32:16;6.90;;;3.80;;
23720;SDS011;42950;52.134;5.578;2023-04-24T05:34:41;4.30;;;3.88;;
23720;SDS011;42950;52.134;5.578;2023-04-24T05:37:07;5.45;;;4.60;;
23720;SDS011;42950;52.134;5.578;2023-04-24T05:39:35;5.43;;;4.63;;
23720;SDS011;42950;52.134;5.578;2023-04-24T05:42:01;6.63;;;4.75;;
23720;SDS011;42950;52.134;5.578;2023-04-24T05:44:28;7.20;;;4.88;;
23720;SDS011;42950;52.134;5.578;2023-04-24T05:46:55;5.28;;;4.78;;
23720;SDS011;42950;52.134;5.578;2023-04-24T05:49:22;6.03;;;4.63;;
23720;SDS011;42950;52.134;5.578;2023-04-24T05:51:49;5.32;;;4.20;;
23720;SDS011;42950;52.134;5.578;2023-04-24T05:54:15;5.15;;;4.65;;
23720;SDS011;42950;52.134;5.578;2023-04-24T05:56:41;5.38;;;4.88;;
23720;SDS011;42950;52.134;5.578;2023-04-24T05:59:07;6.30;;;4.90;;
23720;SDS011;42950;52.134;5.578;2023-04-24T06:01:34;6.80;;;5.22;;
23720;SDS011;42950;52.134;5.578;2023-04-24T06:04:02;6.80;;;5.43;;
23720;SDS011;42950;52.134;5.578;2023-04-24T06:06:28;8.70;;;4.85;;
23720;SDS011;42950;52.134;5.578;2023-04-24T06:08:54;5.72;;;5.13;;
23720;SDS011;42950;52.134;5.578;2023-04-24T06:11:20;6.53;;;5.15;;
23720;SDS011;42950;52.134;5.578;2023-04-24T06:13:46;8.25;;;5.22;;
23720;SDS011;42950;52.134;5.578;2023-04-24T06:16:11;7.88;;;5.43;;
23720;SDS011;42950;52.134;5.578;2023-04-24T06:18:37;6.65;;;5.72;;
23720;SDS011;42950;52.134;5.578;2023-04-24T06:21:03;7.60;;;5.47;;
23720;SDS011;42950;52.134;5.578;2023-04-24T06:23:28;6.63;;;5.60;;
23720;SDS011;42950;52.134;5.578;2023-04-24T06:25:57;7.30;;;5.88;;
23720;SDS011;42950;52.134;5.578;2023-04-24T06:28:22;7.10;;;5.55;;
23720;SDS011;42950;52.134;5.578;2023-04-24T06:30:48;7.22;;;5.60;;
23720;SDS011;42950;52.134;5.578;2023-04-24T06:33:14;5.53;;;4.90;;
23720;SDS011;42950;52.134;5.578;2023-04-24T06:35:39;6.72;;;4.93;;
23720;SDS011;42950;52.134;5.578;2023-04-24T06:38:05;7.07;;;4.78;;
23720;SDS011;42950;52.134;5.578;2023-04-24T06:40:31;5.60;;;4.20;;
23720;SDS011;42950;52.134;5.578;2023-04-24T06:42:56;4.20;;;3.80;;
23720;SDS011;42950;52.134;5.578;2023-04-24T06:45:23;4.45;;;3.25;;
23720;SDS011;42950;52.134;5.578;2023-04-24T06:47:48;3.10;;;2.75;;
23720;SDS011;42950;52.134;5.578;2023-04-24T06:50:14;3.13;;;2.58;;
23720;SDS011;42950;52.134;5.578;2023-04-24T06:52:40;2.40;;;2.15;;
23720;SDS011;42950;52.134;5.578;2023-04-24T06:55:06;2.30;;;2.10;;
23720;SDS011;42950;52.134;5.578;2023-04-24T06:57:32;3.17;;;2.90;;
23720;SDS011;42950;52.134;5.578;2023-04-24T06:59:57;4.75;;;3.50;;
23720;SDS011;42950;52.134;5.578;2023-04-24T07:02:24;5.97;;;4.45;;
23720;SDS011;42950;52.134;5.578;2023-04-24T07:04:50;10.00;;;7.10;;
23720;SDS011;42950;52.134;5.578;2023-04-24T07:07:15;12.77;;;8.80;;
23720;SDS011;42950;52.134;5.578;2023-04-24T07:09:43;14.07;;;9.98;;
23720;SDS011;42950;52.134;5.578;2023-04-24T07:12:10;11.30;;;9.38;;
23720;SDS011;42950;52.134;5.578;2023-04-24T07:14:37;14.02;;;10.27;;
23720;SDS011;42950;52.134;5.578;2023-04-24T07:17:03;14.77;;;10.60;;
23720;SDS011;42950;52.134;5.578;2023-04-24T07:19:30;14.48;;;10.55;;
23720;SDS011;42950;52.134;5.578;2023-04-24T07:21:57;13.88;;;10.55;;
23720;SDS011;42950;52.134;5.578;2023-04-24T07:24:24;16.63;;;11.90;;
23720;SDS011;42950;52.134;5.578;2023-04-24T07:26:50;16.73;;;11.18;;
23720;SDS011;42950;52.134;5.578;2023-04-24T07:29:18;17.05;;;11.52;;
23720;SDS011;42950;52.134;5.578;2023-04-24T07:31:45;16.92;;;12.10;;
23720;SDS011;42950;52.134;5.578;2023-04-24T07:34:11;19.27;;;12.85;;
23720;SDS011;42950;52.134;5.578;2023-04-24T07:36:36;16.88;;;12.13;;
23720;SDS011;42950;52.134;5.578;2023-04-24T07:39:03;19.50;;;12.50;;
23720;SDS011;42950;52.134;5.578;2023-04-24T07:41:30;20.50;;;12.95;;
23720;SDS011;42950;52.134;5.578;2023-04-24T07:43:58;20.73;;;12.85;;
23720;SDS011;42950;52.134;5.578;2023-04-24T07:46:23;18.55;;;12.05;;
23720;SDS011;42950;52.134;5.578;2023-04-24T07:48:49;16.63;;;11.95;;
23720;SDS011;42950;52.134;5.578;2023-04-24T07:51:16;20.52;;;11.23;;
23720;SDS011;42950;52.134;5.578;2023-04-24T07:53:42;17.30;;;11.30;;
23720;SDS011;42950;52.134;5.578;2023-04-24T07:56:08;13.85;;;10.40;;
23720;SDS011;42950;52.134;5.578;2023-04-24T07:58:34;17.00;;;11.15;;
23720;SDS011;42950;52.134;5.578;2023-04-24T08:01:00;18.77;;;10.85;;
23720;SDS011;42950;52.134;5.578;2023-04-24T08:03:26;18.13;;;11.13;;
23720;SDS011;42950;52.134;5.578;2023-04-24T08:05:54;18.65;;;10.85;;
23720;SDS011;42950;52.134;5.578;2023-04-24T08:08:20;18.08;;;11.43;;
23720;SDS011;42950;52.134;5.578;2023-04-24T08:10:47;19.95;;;11.18;;
23720;SDS011;42950;52.134;5.578;2023-04-24T08:13:14;21.48;;;11.18;;
23720;SDS011;42950;52.134;5.578;2023-04-24T08:15:39;16.83;;;11.07;;
23720;SDS011;42950;52.134;5.578;2023-04-24T08:18:05;20.17;;;11.65;;
23720;SDS011;42950;52.134;5.578;2023-04-24T08:20:31;18.38;;;10.68;;
23720;SDS011;42950;52.134;5.578;2023-04-24T08:22:57;20.25;;;11.05;;
23720;SDS011;42950;52.134;5.578;2023-04-24T08:25:22;21.23;;;11.40;;
23720;SDS011;42950;52.134;5.578;2023-04-24T08:27:50;18.92;;;9.90;;
23720;SDS011;42950;52.134;5.578;2023-04-24T08:30:18;16.52;;;8.48;;
23720;SDS011;42950;52.134;5.578;2023-04-24T08:32:44;15.98;;;8.20;;
23720;SDS011;42950;52.134;5.578;2023-04-24T08:35:10;14.27;;;8.23;;
23720;SDS011;42950;52.134;5.578;2023-04-24T08:37:35;14.70;;;7.22;;
23720;SDS011;42950;52.134;5.578;2023-04-24T08:40:06;14.95;;;7.28;;
23720;SDS011;42950;52.134;5.578;2023-04-24T08:42:38;19.00;;;7.63;;
23720;SDS011;42950;52.134;5.578;2023-04-24T08:45:04;11.95;;;6.53;;
23720;SDS011;42950;52.134;5.578;2023-04-24T08:47:37;21.35;;;7.72;;
23720;SDS011;42950;52.134;5.578;2023-04-24T08:50:04;21.55;;;7.50;;
23720;SDS011;42950;52.134;5.578;2023-04-24T08:52:34;14.77;;;5.50;;
23720;SDS011;42950;52.134;5.578;2023-04-24T08:55:00;12.23;;;4.78;;
23720;SDS011;42950;52.134;5.578;2023-04-24T08:57:26;14.35;;;4.80;;
23720;SDS011;42950;52.134;5.578;2023-04-24T08:59:53;18.23;;;5.93;;
23720;SDS011;42950;52.134;5.578;2023-04-24T09:02:20;16.98;;;6.05;;
23720;SDS011;42950;52.134;5.578;2023-04-24T09:04:46;20.00;;;6.03;;
23720;SDS011;42950;52.134;5.578;2023-04-24T09:07:14;17.42;;;6.13;;
23720;SDS011;42950;52.134;5.578;2023-04-24T09:09:42;20.08;;;7.03;;
23720;SDS011;42950;52.134;5.578;2023-04-24T09:12:08;19.08;;;5.75;;
23720;SDS011;42950;52.134;5.578;2023-04-24T09:14:36;18.45;;;5.43;;
23720;SDS011;42950;52.134;5.578;2023-04-24T09:17:04;18.83;;;5.70;;
23720;SDS011;42950;52.134;5.578;2023-04-24T09:19:31;15.98;;;4.68;;
23720;SDS011;42950;52.134;5.578;2023-04-24T09:21:57;16.48;;;4.25;;
23720;SDS011;42950;52.134;5.578;2023-04-24T09:24:22;12.10;;;3.28;;
23720;SDS011;42950;52.134;5.578;2023-04-24T09:26:48;13.02;;;3.08;;
23720;SDS011;42950;52.134;5.578;2023-04-24T09:29:22;17.17;;;4.13;;
23720;SDS011;42950;52.134;5.578;2023-04-24T09:31:48;13.20;;;3.88;;
23720;SDS011;42950;52.134;5.578;2023-04-24T09:34:13;13.93;;;3.85;;
23720;SDS011;42950;52.134;5.578;2023-04-24T09:36:42;16.95;;;3.45;;
23720;SDS011;42950;52.134;5.578;2023-04-24T09:39:10;13.48;;;2.75;;
23720;SDS011;42950;52.134;5.578;2023-04-24T09:44:19;13.75;;;2.92;;
23720;SDS011;42950;52.134;5.578;2023-04-24T09:46:57;11.32;;;3.17;;
23720;SDS011;42950;52.134;5.578;2023-04-24T09:49:27;10.05;;;2.75;;
23720;SDS011;42950;52.134;5.578;2023-04-24T09:52:08;11.25;;;2.92;;
23720;SDS011;42950;52.134;5.578;2023-04-24T09:54:36;12.30;;;2.92;;
23720;SDS011;42950;52.134;5.578;2023-04-24T09:57:02;11.10;;;2.85;;
23720;SDS011;42950;52.134;5.578;2023-04-24T09:59:28;15.38;;;3.13;;
23720;SDS011;42950;52.134;5.578;2023-04-24T10:01:59;7.82;;;2.63;;
23720;SDS011;42950;52.134;5.578;2023-04-24T10:04:25;10.63;;;3.10;;
23720;SDS011;42950;52.134;5.578;2023-04-24T10:06:53;13.77;;;2.53;;
23720;SDS011;42950;52.134;5.578;2023-04-24T10:09:25;9.80;;;3.05;;
23720;SDS011;42950;52.134;5.578;2023-04-24T10:11:53;11.95;;;2.70;;
23720;SDS011;42950;52.134;5.578;2023-04-24T10:14:21;8.70;;;2.78;;
23720;SDS011;42950;52.134;5.578;2023-04-24T10:16:48;11.07;;;3.03;;
23720;SDS011;42950;52.134;5.578;2023-04-24T10:19:15;14.82;;;4.03;;
23720;SDS011;42950;52.134;5.578;2023-04-24T10:21:44;10.93;;;3.08;;
23720;SDS011;42950;52.134;5.578;2023-04-24T10:24:16;12.93;;;3.78;;
23720;SDS011;42950;52.134;5.578;2023-04-24T10:26:45;13.13;;;3.60;;
23720;SDS011;42950;52.134;5.578;2023-04-24T10:29:13;10.48;;;3.22;;
23720;SDS011;42950;52.134;5.578;2023-04-24T10:31:40;8.75;;;2.80;;
23720;SDS011;42950;52.134;5.578;2023-04-24T10:34:07;10.45;;;2.83;;
23720;SDS011;42950;52.134;5.578;2023-04-24T10:36:34;15.02;;;2.45;;
23720;SDS011;42950;52.134;5.578;2023-04-24T10:39:05;7.32;;;2.60;;
23720;SDS011;42950;52.134;5.578;2023-04-24T10:41:39;8.85;;;2.22;;
23720;SDS011;42950;52.134;5.578;2023-04-24T10:44:08;8.05;;;2.70;;
23720;SDS011;42950;52.134;5.578;2023-04-24T10:46:35;6.82;;;2.03;;
23720;SDS011;42950;52.134;5.578;2023-04-24T10:49:05;7.30;;;1.90;;
23720;SDS011;42950;52.134;5.578;2023-04-24T10:51:43;8.50;;;1.70;;
23720;SDS011;42950;52.134;5.578;2023-04-24T10:56:56;4.43;;;1.25;;
23720;SDS011;42950;52.134;5.578;2023-04-24T11:02:45;3.40;;;1.17;;
23720;SDS011;42950;52.134;5.578;2023-04-24T11:05:17;4.93;;;1.30;;
23720;SDS011;42950;52.134;5.578;2023-04-24T11:10:39;7.35;;;1.13;;
23720;SDS011;42950;52.134;5.578;2023-04-24T11:13:08;2.40;;;0.93;;
23720;SDS011;42950;52.134;5.578;2023-04-24T11:15:34;4.43;;;1.35;;
23720;SDS011;42950;52.134;5.578;2023-04-24T11:17:59;2.67;;;1.10;;
23720;SDS011;42950;52.134;5.578;2023-04-24T11:20:25;5.60;;;1.30;;
23720;SDS011;42950;52.134;5.578;2023-04-24T11:22:52;3.40;;;1.40;;
23720;SDS011;42950;52.134;5.578;2023-04-24T11:25:19;7.43;;;1.60;;
23720;SDS011;42950;52.134;5.578;2023-04-24T11:27:47;5.13;;;1.27;;
23720;SDS011;42950;52.134;5.578;2023-04-24T11:30:17;3.70;;;1.20;;
23720;SDS011;42950;52.134;5.578;2023-04-24T11:32:47;4.63;;;1.10;;
23720;SDS011;42950;52.134;5.578;2023-04-24T11:35:16;6.72;;;1.58;;
23720;SDS011;42950;52.134;5.578;2023-04-24T11:37:49;4.35;;;1.30;;
23720;SDS011;42950;52.134;5.578;2023-04-24T11:40:17;6.05;;;1.52;;
23720;SDS011;42950;52.134;5.578;2023-04-24T11:42:45;11.88;;;1.70;;
23720;SDS011;42950;52.134;5.578;2023-04-24T11:45:13;7.90;;;1.60;;
23720;SDS011;42950;52.134;5.578;2023-04-24T11:47:41;4.95;;;1.30;;
23720;SDS011;42950;52.134;5.578;2023-04-24T11:50:09;5.10;;;1.20;;
23720;SDS011;42950;52.134;5.578;2023-04-24T11:52:36;2.92;;;0.90;;
23720;SDS011;42950;52.134;5.578;2023-04-24T11:57:45;4.05;;;1.40;;
23720;SDS011;42950;52.134;5.578;2023-04-24T12:00:15;7.68;;;1.23;;
23720;SDS011;42950;52.134;5.578;2023-04-24T12:02:42;3.20;;;0.93;;
23720;SDS011;42950;52.134;5.578;2023-04-24T12:05:07;4.90;;;1.35;;
23720;SDS011;42950;52.134;5.578;2023-04-24T12:07:40;2.22;;;1.00;;
23720;SDS011;42950;52.134;5.578;2023-04-24T12:10:09;2.90;;;0.80;;
23720;SDS011;42950;52.134;5.578;2023-04-24T12:12:35;1.85;;;0.70;;
23720;SDS011;42950;52.134;5.578;2023-04-24T12:15:01;2.90;;;0.80;;
23720;SDS011;42950;52.134;5.578;2023-04-24T12:17:32;4.18;;;0.75;;
23720;SDS011;42950;52.134;5.578;2023-04-24T12:20:05;3.30;;;0.90;;
23720;SDS011;42950;52.134;5.578;2023-04-24T12:22:51;2.30;;;0.73;;
23720;SDS011;42950;52.134;5.578;2023-04-24T12:25:18;3.47;;;0.80;;
23720;SDS011;42950;52.134;5.578;2023-04-24T12:27:45;2.95;;;0.80;;
23720;SDS011;42950;52.134;5.578;2023-04-24T12:30:13;2.30;;;0.80;;
23720;SDS011;42950;52.134;5.578;2023-04-24T12:32:47;3.75;;;0.90;;
23720;SDS011;42950;52.134;5.578;2023-04-24T12:35:18;4.03;;;1.00;;
23720;SDS011;42950;52.134;5.578;2023-04-24T12:37:45;5.72;;;1.13;;
23720;SDS011;42950;52.134;5.578;2023-04-24T12:40:12;6.13;;;1.20;;
23720;SDS011;42950;52.134;5.578;2023-04-24T12:42:43;4.93;;;1.05;;
23720;SDS011;42950;52.134;5.578;2023-04-24T12:45:13;5.15;;;1.20;;
23720;SDS011;42950;52.134;5.578;2023-04-24T12:47:40;5.18;;;1.20;;
23720;SDS011;42950;52.134;5.578;2023-04-24T12:50:07;5.07;;;1.40;;
23720;SDS011;42950;52.134;5.578;2023-04-24T12:52:34;4.55;;;1.10;;
23720;SDS011;42950;52.134;5.578;2023-04-24T12:55:00;6.38;;;1.23;;
23720;SDS011;42950;52.134;5.578;2023-04-24T12:57:26;8.40;;;2.30;;
23720;SDS011;42950;52.134;5.578;2023-04-24T12:59:54;5.85;;;1.48;;
23720;SDS011;42950;52.134;5.578;2023-04-24T13:02:21;6.75;;;1.48;;
23720;SDS011;42950;52.134;5.578;2023-04-24T13:04:52;8.77;;;1.70;;
23720;SDS011;42950;52.134;5.578;2023-04-24T13:07:18;13.48;;;3.05;;
23720;SDS011;42950;52.134;5.578;2023-04-24T13:09:44;15.55;;;4.55;;
23720;SDS011;42950;52.134;5.578;2023-04-24T13:12:10;12.98;;;4.10;;
23720;SDS011;42950;52.134;5.578;2023-04-24T13:14:37;11.98;;;3.40;;
23720;SDS011;42950;52.134;5.578;2023-04-24T13:17:02;16.25;;;2.90;;
23720;SDS011;42950;52.134;5.578;2023-04-24T13:19:28;14.35;;;3.08;;
23720;SDS011;42950;52.134;5.578;2023-04-24T13:21:55;11.07;;;3.83;;
23720;SDS011;42950;52.134;5.578;2023-04-24T13:24:24;8.68;;;2.53;;
23720;SDS011;42950;52.134;5.578;2023-04-24T13:26:51;11.73;;;3.22;;
23720;SDS011;42950;52.134;5.578;2023-04-24T13:29:17;10.95;;;2.78;;
23720;SDS011;42950;52.134;5.578;2023-04-24T13:31:42;11.18;;;2.45;;
23720;SDS011;42950;52.134;5.578;2023-04-24T13:34:08;14.25;;;2.70;;
23720;SDS011;42950;52.134;5.578;2023-04-24T13:36:34;11.80;;;2.40;;
23720;SDS011;42950;52.134;5.578;2023-04-24T13:39:00;11.77;;;2.65;;
23720;SDS011;42950;52.134;5.578;2023-04-24T13:41:26;12.32;;;2.50;;
23720;SDS011;42950;52.134;5.578;2023-04-24T13:43:52;15.60;;;3.63;;
23720;SDS011;42950;52.134;5.578;2023-04-24T13:46:17;11.93;;;2.15;;
23720;SDS011;42950;52.134;5.578;2023-04-24T13:48:43;13.75;;;2.83;;
23720;SDS011;42950;52.134;5.578;2023-04-24T13:51:10;12.20;;;3.47;;
23720;SDS011;42950;52.134;5.578;2023-04-24T13:53:35;10.65;;;2.65;;
23720;SDS011;42950;52.134;5.578;2023-04-24T13:56:03;15.02;;;2.58;;
23720;SDS011;42950;52.134;5.578;2023-04-24T13:58:29;9.88;;;2.90;;
23720;SDS011;42950;52.134;5.578;2023-04-24T14:00:55;9.57;;;2.58;;
23720;SDS011;42950;52.134;5.578;2023-04-24T14:03:21;8.80;;;2.58;;
23720;SDS011;42950;52.134;5.578;2023-04-24T14:05:46;12.73;;;3.25;;
23720;SDS011;42950;52.134;5.578;2023-04-24T14:08:12;16.98;;;3.85;;
23720;SDS011;42950;52.134;5.578;2023-04-24T14:10:38;11.10;;;2.65;;
23720;SDS011;42950;52.134;5.578;2023-04-24T14:13:04;13.57;;;2.88;;
23720;SDS011;42950;52.134;5.578;2023-04-24T14:15:30;12.00;;;2.95;;
23720;SDS011;42950;52.134;5.578;2023-04-24T14:17:56;13.40;;;3.05;;
23720;SDS011;42950;52.134;5.578;2023-04-24T14:20:22;16.15;;;2.80;;
23720;SDS011;42950;52.134;5.578;2023-04-24T14:22:48;13.05;;;3.22;;
23720;SDS011;42950;52.134;5.578;2023-04-24T14:25:14;7.97;;;2.85;;
23720;SDS011;42950;52.134;5.578;2023-04-24T14:27:40;12.98;;;2.50;;
23720;SDS011;42950;52.134;5.578;2023-04-24T14:30:06;10.80;;;3.08;;
23720;SDS011;42950;52.134;5.578;2023-04-24T14:32:32;11.15;;;3.25;;
23720;SDS011;42950;52.134;5.578;2023-04-24T14:34:58;12.55;;;3.63;;
23720;SDS011;42950;52.134;5.578;2023-04-24T14:37:23;13.38;;;3.00;;
23720;SDS011;42950;52.134;5.578;2023-04-24T14:39:49;12.70;;;3.63;;
23720;SDS011;42950;52.134;5.578;2023-04-24T14:42:15;15.18;;;3.28;;
23720;SDS011;42950;52.134;5.578;2023-04-24T14:44:42;22.02;;;4.68;;
23720;SDS011;42950;52.134;5.578;2023-04-24T14:47:07;15.73;;;4.05;;
23720;SDS011;42950;52.134;5.578;2023-04-24T14:49:33;11.38;;;3.28;;
23720;SDS011;42950;52.134;5.578;2023-04-24T14:51:58;13.57;;;3.35;;
23720;SDS011;42950;52.134;5.578;2023-04-24T14:54:24;9.55;;;2.97;;